Time;durP1;ratioP1;P1;durP2;ratioP2;P2;SDS_P1;SDS_P2;PMS_P1;PMS_P2;Temp;Humidity;BMP_temperature;BMP_pressure;BME280_temperature;BME280_humidity;BME280_pressure;Samples;Min_cycle;Max_cycle;Signal;HPM_P1;HPM_P2
2022/08/02 00:01:29;;;;;;;2.50;2.30;;;16.80;99.90;;;;;;7381171;19;20332;-77
2022/08/02 00:03:54;;;;;;;2.30;2.10;;;16.80;99.90;;;;;;7378677;19;20332;-77
2022/08/02 00:06:20;;;;;;;2.20;1.93;;;16.70;99.90;;;;;;7376275;19;20361;-77
2022/08/02 00:08:45;;;;;;;2.80;2.40;;;16.70;99.90;;;;;;7380280;19;20332;-76
2022/08/02 00:11:11;;;;;;;2.30;2.10;;;16.60;99.90;;;;;;7381728;19;20368;-77
2022/08/02 00:13:37;;;;;;;2.20;2.00;;;16.60;99.90;;;;;;7379008;19;20459;-77
2022/08/02 00:16:02;;;;;;;2.20;2.00;;;16.70;99.90;;;;;;7381484;19;20366;-77
2022/08/02 00:18:28;;;;;;;2.20;2.10;;;16.70;99.90;;;;;;7378787;19;20336;-77
2022/08/02 00:20:53;;;;;;;2.87;1.97;;;16.70;99.90;;;;;;7382375;19;20368;-76
2022/08/02 00:23:19;;;;;;;2.47;2.28;;;16.70;99.90;;;;;;7375396;19;20999;-77
2022/08/02 00:25:45;;;;;;;2.70;2.20;;;16.60;99.90;;;;;;7378036;19;20501;-77
2022/08/02 00:28:10;;;;;;;2.20;1.90;;;16.60;99.90;;;;;;7379433;19;20344;-76
2022/08/02 00:30:36;;;;;;;2.10;1.98;;;16.60;99.90;;;;;;7378215;19;20462;-77
2022/08/02 00:33:03;;;;;;;2.60;2.40;;;16.60;99.90;;;;;;7377076;19;20345;-76
2022/08/02 00:35:29;;;;;;;2.20;2.10;;;16.50;99.90;;;;;;7380862;19;20357;-77
2022/08/02 00:37:55;;;;;;;3.80;2.60;;;16.50;99.90;;;;;;7376742;19;20407;-76
2022/08/02 00:40:21;;;;;;;1.97;1.83;;;16.50;99.90;;;;;;7382036;19;20350;-76
2022/08/02 00:42:46;;;;;;;2.25;2.05;;;16.50;99.90;;;;;;7377581;19;20394;-76
2022/08/02 00:45:12;;;;;;;2.43;2.07;;;16.50;99.90;;;;;;7378503;19;20875;-78
2022/08/02 00:47:37;;;;;;;2.53;2.33;;;16.50;99.90;;;;;;7380605;19;20359;-76
2022/08/02 00:50:03;;;;;;;2.60;2.40;;;16.40;99.90;;;;;;7380020;19;20357;-76
2022/08/02 00:52:29;;;;;;;2.60;2.40;;;16.30;99.90;;;;;;7376994;19;20869;-77
2022/08/02 00:54:54;;;;;;;2.40;2.20;;;16.30;99.90;;;;;;7381681;19;20348;-77
2022/08/02 00:57:20;;;;;;;2.33;2.13;;;16.20;99.90;;;;;;7378099;19;20388;-77
2022/08/02 00:59:45;;;;;;;2.50;2.30;;;16.10;99.90;;;;;;7381528;19;20343;-76
2022/08/02 01:02:11;;;;;;;1.83;1.73;;;16.10;99.90;;;;;;7375841;19;20447;-77
2022/08/02 01:04:36;;;;;;;2.07;1.97;;;16.10;99.90;;;;;;7376377;19;20693;-77
2022/08/02 01:07:03;;;;;;;2.20;2.00;;;16.20;99.90;;;;;;7377864;19;20345;-76
2022/08/02 01:09:28;;;;;;;3.15;2.30;;;16.20;99.90;;;;;;7379451;19;20439;-76
2022/08/02 01:11:54;;;;;;;2.70;2.30;;;16.20;99.90;;;;;;7378112;19;20352;-76
2022/08/02 01:14:19;;;;;;;1.97;1.87;;;16.20;99.90;;;;;;7379094;19;20840;-76
2022/08/02 01:17:05;;;;;;;2.55;2.35;;;16.10;99.90;;;;;;7376875;19;20328;-76
2022/08/02 01:19:47;;;;;;;2.13;2.00;;;16.10;99.90;;;;;;7379680;19;20360;-76
2022/08/02 01:22:45;;;;;;;5.10;1.80;;;16.00;99.90;;;;;;7373979;19;21138;-77
2022/08/02 01:25:26;;;;;;;2.00;1.80;;;16.00;99.90;;;;;;7377217;19;20369;-76
2022/08/02 01:28:15;;;;;;;1.83;1.73;;;16.00;99.90;;;;;;7377527;19;20366;-77
2022/08/02 01:30:41;;;;;;;1.88;1.77;;;16.00;99.90;;;;;;7378085;19;20320;-77
2022/08/02 01:33:06;;;;;;;1.90;1.80;;;16.00;99.90;;;;;;7375879;19;20356;-77
2022/08/02 01:35:43;;;;;;;1.80;1.70;;;16.00;99.90;;;;;;7376644;19;21345;-76
2022/08/02 01:38:13;;;;;;;2.30;2.10;;;16.00;99.90;;;;;;7376466;19;20320;-76
2022/08/02 01:40:39;;;;;;;2.10;1.90;;;16.10;99.90;;;;;;7378454;19;20369;-76
2022/08/02 01:43:04;;;;;;;2.40;2.20;;;16.10;99.90;;;;;;7372926;19;20344;-76
2022/08/02 01:45:32;;;;;;;1.90;1.80;;;16.10;99.90;;;;;;7376891;19;20978;-76
2022/08/02 01:47:58;;;;;;;1.80;1.70;;;16.10;99.90;;;;;;7374451;19;20355;-76
2022/08/02 01:50:31;;;;;;;1.80;1.70;;;16.00;99.90;;;;;;7378102;19;20366;-76
2022/08/02 01:52:57;;;;;;;1.80;1.70;;;16.00;99.90;;;;;;7373046;19;20372;-76
2022/08/02 01:55:28;;;;;;;2.30;2.10;;;16.00;99.90;;;;;;7376745;19;20460;-76
2022/08/02 01:57:56;;;;;;;1.80;1.70;;;16.00;99.90;;;;;;7377244;19;20376;-77
2022/08/02 02:00:23;;;;;;;1.70;1.60;;;16.00;99.90;;;;;;7376980;19;20363;-76
2022/08/02 02:02:49;;;;;;;2.30;2.20;;;16.10;99.90;;;;;;7373844;19;20388;-76
2022/08/02 02:05:16;;;;;;;3.50;2.20;;;16.10;99.90;;;;;;7373485;19;20361;-76
2022/08/02 02:07:43;;;;;;;2.25;2.15;;;16.10;99.90;;;;;;7375066;19;20367;-76
2022/08/02 02:10:10;;;;;;;1.90;1.80;;;16.20;99.90;;;;;;7378914;19;21112;-76
2022/08/02 02:12:36;;;;;;;1.90;1.80;;;16.10;99.90;;;;;;7375783;19;20393;-76
2022/08/02 02:15:01;;;;;;;1.90;1.80;;;16.10;99.90;;;;;;7376554;19;20372;-77
2022/08/02 02:17:28;;;;;;;1.90;1.80;;;16.10;99.90;;;;;;7375096;19;20348;-77
2022/08/02 02:19:54;;;;;;;2.63;2.43;;;16.10;99.90;;;;;;7375621;19;20340;-76
2022/08/02 02:22:19;;;;;;;2.00;1.90;;;16.10;99.90;;;;;;7374397;19;20448;-76
2022/08/02 02:24:45;;;;;;;2.22;2.03;;;16.00;99.90;;;;;;7376366;19;20408;-76
2022/08/02 02:27:11;;;;;;;2.40;2.20;;;16.00;99.90;;;;;;7374160;19;20312;-77
2022/08/02 02:29:38;;;;;;;1.92;1.83;;;16.10;99.90;;;;;;7376809;19;20352;-76
2022/08/02 02:32:04;;;;;;;1.95;1.85;;;16.10;99.90;;;;;;7374858;19;20910;-76
2022/08/02 02:34:37;;;;;;;1.92;1.83;;;16.20;99.90;;;;;;7373828;19;20365;-77
2022/08/02 02:37:04;;;;;;;2.20;2.10;;;16.30;99.90;;;;;;7374253;19;20376;-76
2022/08/02 02:39:30;;;;;;;2.33;2.03;;;16.30;99.90;;;;;;7377366;19;20453;-76
2022/08/02 02:41:57;;;;;;;2.23;2.13;;;16.40;99.90;;;;;;7373744;19;21259;-76
2022/08/02 02:44:23;;;;;;;2.45;2.25;;;16.40;99.90;;;;;;7374742;19;20993;-76
2022/08/02 02:46:50;;;;;;;2.57;2.37;;;16.40;99.90;;;;;;7374522;19;20371;-76
2022/08/02 02:49:16;;;;;;;2.75;2.53;;;16.40;99.90;;;;;;7376513;19;20329;-76
2022/08/02 02:51:41;;;;;;;2.58;2.38;;;16.40;99.90;;;;;;7373549;19;20377;-76
2022/08/02 02:54:08;;;;;;;2.03;1.93;;;16.40;99.90;;;;;;7373750;19;20336;-76
2022/08/02 02:56:34;;;;;;;2.00;1.90;;;16.50;99.90;;;;;;7373157;19;21005;-77
2022/08/02 02:59:00;;;;;;;2.70;2.10;;;16.50;99.90;;;;;;7374269;19;20344;-76
2022/08/02 03:01:31;;;;;;;1.93;1.83;;;16.60;99.90;;;;;;7371981;19;20966;-77
2022/08/02 03:03:59;;;;;;;1.90;1.80;;;16.60;99.90;;;;;;7373322;19;20360;-77
2022/08/02 03:06:25;;;;;;;2.15;2.05;;;16.60;99.90;;;;;;7372080;19;20344;-77
2022/08/02 03:08:50;;;;;;;2.43;2.20;;;16.60;99.90;;;;;;7374807;19;20721;-76
2022/08/02 03:11:16;;;;;;;2.20;2.10;;;16.60;99.90;;;;;;7374853;19;20345;-77
2022/08/02 03:13:42;;;;;;;2.43;2.23;;;16.40;99.90;;;;;;7371974;19;20347;-77
2022/08/02 03:16:07;;;;;;;2.60;2.40;;;16.50;99.90;;;;;;7375663;19;20343;-76
2022/08/02 03:18:34;;;;;;;2.35;2.25;;;16.50;99.90;;;;;;7372990;19;20711;-76
2022/08/02 03:21:01;;;;;;;2.78;2.58;;;16.40;99.90;;;;;;7375000;19;20365;-76
2022/08/02 03:23:27;;;;;;;2.20;2.00;;;16.30;99.90;;;;;;7373104;19;20686;-76
2022/08/02 03:25:52;;;;;;;2.63;2.10;;;16.30;99.90;;;;;;7371716;19;20360;-76
2022/08/02 03:28:18;;;;;;;2.30;2.10;;;16.40;99.90;;;;;;7371819;19;20340;-77
2022/08/02 03:30:43;;;;;;;2.70;2.50;;;16.40;99.90;;;;;;7373191;19;20328;-77
2022/08/02 03:33:09;;;;;;;2.65;2.45;;;16.40;99.90;;;;;;7371297;19;21250;-77
2022/08/02 03:35:35;;;;;;;2.40;2.20;;;16.40;99.90;;;;;;7373669;19;20356;-76
2022/08/02 03:38:00;;;;;;;2.50;2.30;;;16.40;99.90;;;;;;7371771;19;20695;-77
2022/08/02 03:40:26;;;;;;;2.67;2.47;;;16.40;99.90;;;;;;7375919;19;20355;-77
2022/08/02 03:42:52;;;;;;;3.63;2.60;;;16.50;99.90;;;;;;7372059;19;20744;-77
2022/08/02 03:45:17;;;;;;;2.70;2.50;;;16.50;99.90;;;;;;7373015;19;20356;-77
2022/08/02 03:47:43;;;;;;;2.30;2.10;;;16.50;99.90;;;;;;7372461;19;20339;-77
2022/08/02 03:50:11;;;;;;;4.47;2.73;;;16.60;99.90;;;;;;7367444;19;20341;-77
2022/08/02 03:52:36;;;;;;;2.60;2.47;;;16.60;99.90;;;;;;7370048;19;20367;-78
2022/08/02 03:55:02;;;;;;;3.15;2.85;;;16.50;99.90;;;;;;7373315;19;20368;-77
2022/08/02 03:57:27;;;;;;;2.70;2.50;;;16.50;99.90;;;;;;7371344;19;20341;-76
2022/08/02 03:59:53;;;;;;;2.30;2.20;;;16.50;99.90;;;;;;7374430;19;20353;-77
2022/08/02 04:02:19;;;;;;;2.17;2.08;;;16.50;99.90;;;;;;7370180;19;20368;-76
2022/08/02 04:04:44;;;;;;;2.27;2.17;;;16.60;99.90;;;;;;7372877;19;20394;-76
2022/08/02 04:07:10;;;;;;;2.00;1.90;;;16.60;99.90;;;;;;7371746;19;20336;-76
2022/08/02 04:09:35;;;;;;;2.72;2.53;;;16.70;99.90;;;;;;7373313;19;20683;-76
2022/08/02 04:12:01;;;;;;;2.30;2.10;;;16.70;99.90;;;;;;7371030;19;20385;-77
2022/08/02 04:14:26;;;;;;;2.60;2.40;;;16.70;99.90;;;;;;7373314;19;20470;-77
2022/08/02 04:17:17;;;;;;;2.60;2.40;;;16.70;99.90;;;;;;7372548;19;20329;-77
2022/08/02 04:19:55;;;;;;;2.20;2.10;;;16.70;99.90;;;;;;7374870;19;20364;-77
2022/08/02 04:22:26;;;;;;;2.55;2.35;;;16.70;99.90;;;;;;7370691;19;20376;-77
2022/08/02 04:24:54;;;;;;;2.40;2.20;;;16.60;99.90;;;;;;7373880;19;20717;-77
2022/08/02 04:27:20;;;;;;;2.30;2.10;;;16.70;99.90;;;;;;7370347;19;20349;-77
2022/08/02 04:29:46;;;;;;;2.80;2.60;;;16.60;99.90;;;;;;7374603;19;21162;-77
2022/08/02 04:32:12;;;;;;;2.50;2.30;;;16.60;99.90;;;;;;7369686;19;20365;-77
2022/08/02 04:34:37;;;;;;;2.35;2.25;;;16.60;99.90;;;;;;7373347;19;20340;-78
2022/08/02 04:37:03;;;;;;;3.00;2.80;;;16.60;99.90;;;;;;7370976;19;20329;-77
2022/08/02 04:39:29;;;;;;;2.77;2.57;;;16.60;99.90;;;;;;7380106;19;20328;-76
2022/08/02 04:41:54;;;;;;;2.45;2.28;;;16.60;99.90;;;;;;7377032;19;20377;-76
2022/08/02 04:44:20;;;;;;;3.20;2.97;;;16.60;99.90;;;;;;7381874;19;20443;-77
2022/08/02 04:46:45;;;;;;;3.33;3.03;;;16.60;99.90;;;;;;7379896;19;20392;-77
2022/08/02 04:49:11;;;;;;;2.72;2.53;;;16.70;99.90;;;;;;7381838;19;20328;-77
2022/08/02 04:51:41;;;;;;;2.20;2.10;;;16.70;99.90;;;;;;7378871;19;20389;-77
2022/08/02 04:54:07;;;;;;;2.55;2.35;;;16.80;99.90;;;;;;7379715;19;20353;-77
2022/08/02 04:56:32;;;;;;;3.60;2.80;;;16.90;99.90;;;;;;7378928;19;20344;-77
2022/08/02 04:58:58;;;;;;;2.60;2.40;;;17.00;99.90;;;;;;7380270;19;20368;-77
2022/08/02 05:01:23;;;;;;;2.97;2.75;;;17.10;99.90;;;;;;7378915;19;20881;-77
2022/08/02 05:03:49;;;;;;;2.67;2.47;;;17.20;99.90;;;;;;7379742;19;20358;-77
2022/08/02 05:06:15;;;;;;;3.00;2.70;;;17.30;99.90;;;;;;7376600;19;21050;-77
2022/08/02 05:08:41;;;;;;;2.60;2.40;;;17.40;99.90;;;;;;7379177;19;20364;-77
2022/08/02 05:11:06;;;;;;;2.93;2.50;;;17.60;99.90;;;;;;7380715;19;20344;-77
2022/08/02 05:13:32;;;;;;;3.38;3.10;;;17.70;99.90;;;;;;7372900;19;20348;-77
2022/08/02 05:16:02;;;;;;;3.53;3.23;;;17.70;99.90;;;;;;7375203;19;20336;-77
2022/08/02 05:18:27;;;;;;;4.57;2.90;;;17.70;99.90;;;;;;7375853;19;20332;-77
2022/08/02 05:20:53;;;;;;;3.10;2.90;;;17.80;99.90;;;;;;7379283;19;20344;-77
2022/08/02 05:23:19;;;;;;;4.70;3.53;;;17.80;99.90;;;;;;7375536;19;21326;-77
2022/08/02 05:25:44;;;;;;;2.73;2.53;;;17.80;99.90;;;;;;7376660;19;20986;-77
2022/08/02 05:28:10;;;;;;;2.77;2.57;;;17.80;99.90;;;;;;7373525;19;20348;-76
2022/08/02 05:30:35;;;;;;;3.78;2.70;;;17.90;99.90;;;;;;7375633;19;20812;-76
2022/08/02 05:33:01;;;;;;;2.58;2.38;;;17.90;99.90;;;;;;7371561;19;20472;-77
2022/08/02 05:35:26;;;;;;;2.80;2.60;;;18.00;99.90;;;;;;7373958;19;20352;-77
2022/08/02 05:37:52;;;;;;;3.00;2.80;;;18.00;99.90;;;;;;7377269;19;20987;-78
2022/08/02 05:40:18;;;;;;;3.50;3.20;;;18.00;99.90;;;;;;7376434;19;20870;-77
2022/08/02 05:42:43;;;;;;;3.20;3.00;;;18.00;99.90;;;;;;7374608;19;20390;-76
2022/08/02 05:45:09;;;;;;;4.22;2.70;;;18.00;99.90;;;;;;7376086;19;20351;-77
2022/08/02 05:47:35;;;;;;;3.87;3.57;;;18.00;99.90;;;;;;7376674;19;20364;-77
2022/08/02 05:50:00;;;;;;;3.30;3.10;;;18.10;99.90;;;;;;7378042;19;20368;-77
2022/08/02 05:52:32;;;;;;;3.00;2.70;;;18.10;99.90;;;;;;7375522;19;20357;-78
2022/08/02 05:55:08;;;;;;;3.28;3.00;;;18.10;99.90;;;;;;7374420;19;20347;-78
2022/08/02 05:57:37;;;;;;;4.43;3.10;;;18.20;99.90;;;;;;7376384;19;20880;-78
2022/08/02 06:00:04;;;;;;;2.80;2.60;;;18.30;99.90;;;;;;7376976;19;20766;-77
2022/08/02 06:02:59;;;;;;;3.45;2.97;;;18.30;99.90;;;;;;7375730;19;20317;-77
2022/08/02 06:05:26;;;;;;;3.90;3.60;;;18.50;99.90;;;;;;7377120;19;20348;-78
2022/08/02 06:07:51;;;;;;;2.80;2.60;;;18.40;99.90;;;;;;7376736;19;20868;-77
2022/08/02 06:10:19;;;;;;;3.95;3.15;;;18.40;99.90;;;;;;7377940;19;20353;-77
2022/08/02 06:12:47;;;;;;;2.80;2.60;;;18.50;99.90;;;;;;7375105;19;20384;-77
2022/08/02 06:15:14;;;;;;;3.20;2.90;;;18.60;99.90;;;;;;7377280;19;20340;-77
2022/08/02 06:17:40;;;;;;;4.13;3.65;;;18.70;99.90;;;;;;7376590;19;20328;-77
2022/08/02 06:20:05;;;;;;;3.60;2.73;;;18.80;99.90;;;;;;7376624;19;20694;-79
2022/08/02 06:22:31;;;;;;;3.25;2.97;;;18.80;99.90;;;;;;7374876;19;20464;-77
2022/08/02 06:24:57;;;;;;;3.20;2.90;;;18.80;99.90;;;;;;7375827;19;20344;-78
2022/08/02 06:27:27;;;;;;;2.80;2.60;;;19.00;99.90;;;;;;7375308;19;20363;-77
2022/08/02 06:29:53;;;;;;;3.30;3.00;;;19.00;99.90;;;;;;7379257;19;20351;-77
2022/08/02 06:32:19;;;;;;;3.17;2.90;;;19.00;99.90;;;;;;7373491;19;20336;-77
2022/08/02 06:34:45;;;;;;;2.90;2.70;;;19.00;99.90;;;;;;7376663;19;20340;-78
2022/08/02 06:37:16;;;;;;;3.83;2.80;;;19.00;99.90;;;;;;7375421;19;20308;-79
2022/08/02 06:39:44;;;;;;;3.00;2.80;;;19.10;99.90;;;;;;7378591;19;20386;-77
2022/08/02 06:42:12;;;;;;;4.28;3.80;;;19.10;99.90;;;;;;7375532;19;20694;-78
2022/08/02 06:44:43;;;;;;;3.40;3.03;;;19.10;99.90;;;;;;7376197;19;20352;-78
2022/08/02 06:47:08;;;;;;;3.37;2.80;;;19.20;99.90;;;;;;7373940;19;20359;-78
2022/08/02 06:49:34;;;;;;;5.30;2.80;;;19.20;99.90;;;;;;7377627;19;20832;-77
2022/08/02 06:51:59;;;;;;;3.60;3.30;;;19.40;99.90;;;;;;7373993;19;20352;-77
2022/08/02 06:54:25;;;;;;;2.97;2.77;;;19.50;99.90;;;;;;7378052;19;20328;-78
2022/08/02 06:56:50;;;;;;;3.50;3.20;;;19.70;99.90;;;;;;7376026;19;20347;-79
2022/08/02 06:59:16;;;;;;;3.72;3.40;;;19.90;99.90;;;;;;7378078;19;20337;-78
2022/08/02 07:01:42;;;;;;;3.90;3.60;;;20.10;99.90;;;;;;7374706;19;20800;-77
2022/08/02 07:04:08;;;;;;;4.40;4.00;;;20.30;99.90;;;;;;7377530;19;20364;-77
2022/08/02 07:06:34;;;;;;;3.88;3.47;;;20.40;99.90;;;;;;7374844;19;20383;-79
2022/08/02 07:08:59;;;;;;;4.28;3.88;;;20.60;99.90;;;;;;7378071;19;20360;-77
2022/08/02 07:11:25;;;;;;;4.23;3.70;;;20.80;99.90;;;;;;7376845;19;20336;-77
2022/08/02 07:13:50;;;;;;;4.20;3.80;;;21.10;99.90;;;;;;7378361;19;20344;-77
2022/08/02 07:16:16;;;;;;;6.67;3.80;;;21.30;99.90;;;;;;7378731;19;20364;-79
2022/08/02 07:18:42;;;;;;;5.63;5.07;;;21.50;99.90;;;;;;7375587;19;20340;-77
2022/08/02 07:21:07;;;;;;;5.93;5.10;;;21.40;99.90;;;;;;7375225;19;21268;-77
2022/08/02 07:23:33;;;;;;;4.83;4.43;;;21.40;99.90;;;;;;7373218;19;21154;-77
2022/08/02 07:25:59;;;;;;;2.95;2.75;;;21.30;99.90;;;;;;7373541;19;20337;-76
2022/08/02 07:28:24;;;;;;;4.90;3.30;;;21.40;99.90;;;;;;7375506;19;20348;-77
2022/08/02 07:30:50;;;;;;;4.83;4.03;;;21.50;99.90;;;;;;7376129;19;20416;-77
2022/08/02 07:33:16;;;;;;;6.30;4.00;;;21.80;99.90;;;;;;7372170;19;20349;-77
2022/08/02 07:35:41;;;;;;;3.97;3.07;;;22.00;99.90;;;;;;7377916;19;20344;-77
2022/08/02 07:38:07;;;;;;;2.80;2.60;;;22.10;99.90;;;;;;7372697;19;20349;-77
2022/08/02 07:40:32;;;;;;;3.60;2.42;;;22.20;99.90;;;;;;7374958;19;20352;-77
2022/08/02 07:42:58;;;;;;;3.00;2.10;;;22.40;99.90;;;;;;7372495;19;20859;-78
2022/08/02 07:45:24;;;;;;;3.10;2.70;;;22.60;99.90;;;;;;7375073;19;20915;-77
2022/08/02 07:47:50;;;;;;;3.30;3.00;;;22.70;99.90;;;;;;7375767;19;20333;-77
2022/08/02 07:50:16;;;;;;;2.50;2.30;;;22.90;99.90;;;;;;7375604;19;20346;-77
2022/08/02 07:52:42;;;;;;;2.80;2.60;;;23.10;99.90;;;;;;7373714;19;20935;-77
2022/08/02 07:55:08;;;;;;;4.20;3.20;;;23.30;99.90;;;;;;7375104;19;20352;-78
2022/08/02 07:57:34;;;;;;;3.70;3.40;;;23.30;99.90;;;;;;7372745;19;20340;-77
2022/08/02 08:00:00;;;;;;;3.50;3.20;;;23.20;99.90;;;;;;7375727;19;20353;-78
2022/08/02 08:02:25;;;;;;;6.20;3.13;;;23.00;99.90;;;;;;7370649;19;20324;-77
2022/08/02 08:04:51;;;;;;;4.22;3.03;;;22.90;99.90;;;;;;7373676;19;20439;-77
2022/08/02 08:07:17;;;;;;;3.10;2.65;;;23.10;99.90;;;;;;7372215;19;20701;-77
2022/08/02 08:09:42;;;;;;;2.43;2.23;;;23.30;99.90;;;;;;7375253;19;21086;-78
2022/08/02 08:12:08;;;;;;;3.20;2.60;;;23.60;99.90;;;;;;7371581;19;20356;-77
2022/08/02 08:14:34;;;;;;;2.90;2.08;;;23.90;99.90;;;;;;7380078;19;20464;-78
2022/08/02 08:16:59;;;;;;;2.85;2.30;;;24.20;99.90;;;;;;7380342;19;20337;-77
2022/08/02 08:19:25;;;;;;;3.83;2.90;;;24.30;99.90;;;;;;7382008;19;20365;-77
2022/08/02 08:21:51;;;;;;;3.10;2.70;;;24.30;99.90;;;;;;7377977;19;20368;-78
2022/08/02 08:24:16;;;;;;;2.83;2.60;;;24.30;99.90;;;;;;7378286;19;20344;-77
2022/08/02 08:26:42;;;;;;;3.53;2.60;;;24.20;99.90;;;;;;7377822;19;20374;-78
2022/08/02 08:29:07;;;;;;;3.47;2.67;;;24.40;99.90;;;;;;7381859;19;20390;-77
2022/08/02 08:31:33;;;;;;;6.53;2.73;;;24.70;99.90;;;;;;7378762;19;20328;-78
2022/08/02 08:33:59;;;;;;;7.30;2.73;;;24.80;99.90;;;;;;7381680;19;20345;-78
2022/08/02 08:36:25;;;;;;;4.57;3.60;;;25.10;99.90;;;;;;7383246;19;20368;-78
2022/08/02 08:38:50;;;;;;;3.20;3.00;;;25.40;99.90;;;;;;7384444;19;20680;-78
2022/08/02 08:41:17;;;;;;;3.47;3.17;;;25.70;99.90;;;;;;7381183;19;20370;-78
2022/08/02 08:43:43;;;;;;;3.47;3.17;;;25.90;99.90;;;;;;7377755;19;20360;-78
2022/08/02 08:46:10;;;;;;;3.70;3.17;;;25.50;99.90;;;;;;7379734;19;20330;-77
2022/08/02 08:48:36;;;;;;;3.35;2.70;;;25.70;99.90;;;;;;7380688;19;20359;-78
2022/08/02 08:51:15;;;;;;;3.15;2.85;;;25.90;99.90;;;;;;7380842;19;20347;-78
2022/08/02 08:53:43;;;;;;;4.53;3.05;;;26.10;99.90;;;;;;7376622;19;20365;-78
2022/08/02 08:56:10;;;;;;;3.80;2.75;;;26.20;99.90;;;;;;7379885;19;20370;-78
2022/08/02 08:58:37;;;;;;;3.05;2.60;;;26.20;99.90;;;;;;7379399;19;21278;-78
2022/08/02 09:01:03;;;;;;;3.38;2.80;;;26.30;99.90;;;;;;7380255;19;20357;-77
2022/08/02 09:03:28;;;;;;;3.55;2.83;;;26.30;99.90;;;;;;7377728;19;20385;-76
2022/08/02 09:05:56;;;;;;;2.35;2.15;;;26.10;99.90;;;;;;7379232;19;20372;-78
2022/08/02 09:08:22;;;;;;;2.73;2.40;;;26.20;99.90;;;;;;7380614;19;20332;-78
2022/08/02 09:10:48;;;;;;;2.67;2.47;;;26.60;99.90;;;;;;7378358;19;20373;-77
2022/08/02 09:13:19;;;;;;;4.03;2.50;;;26.90;99.90;;;;;;7376981;19;20353;-78
2022/08/02 09:15:52;;;;;;;2.72;2.53;;;27.00;99.90;;;;;;7382322;19;20316;-78
2022/08/02 09:18:17;;;;;;;2.88;2.67;;;27.30;99.90;;;;;;7377479;19;20368;-78
2022/08/02 09:20:56;;;;;;;3.10;2.40;;;27.50;99.90;;;;;;7380751;19;20372;-77
2022/08/02 09:23:21;;;;;;;3.00;2.70;;;27.40;99.90;;;;;;7378078;19;20356;-78
2022/08/02 09:25:57;;;;;;;2.50;2.27;;;27.50;99.90;;;;;;7375033;19;20345;-77
2022/08/02 09:28:27;;;;;;;3.72;2.40;;;27.60;99.90;;;;;;7380719;19;20340;-77
2022/08/02 09:30:55;;;;;;;2.37;2.17;;;28.00;99.90;;;;;;7381728;19;20667;-78
2022/08/02 09:33:25;;;;;;;3.35;2.40;;;28.30;99.90;;;;;;7376783;19;20394;-77
2022/08/02 09:36:07;;;;;;;2.25;2.03;;;28.50;99.90;;;;;;7379752;19;20345;-78
2022/08/02 09:38:33;;;;;;;2.10;1.80;;;28.40;99.90;;;;;;7379317;19;20891;-79
2022/08/02 09:40:58;;;;;;;2.13;1.90;;;28.50;99.90;;;;;;7380911;19;20356;-77
2022/08/02 09:43:38;;;;;;;3.07;2.30;;;28.80;99.90;;;;;;7376676;19;20357;-78
2022/08/02 09:46:14;;;;;;;4.75;2.50;;;29.00;99.90;;;;;;7378786;19;20342;-78
2022/08/02 09:48:46;;;;;;;2.30;2.10;;;28.90;99.90;;;;;;7383156;19;20902;-78
2022/08/02 09:51:12;;;;;;;2.10;2.00;;;28.90;99.90;;;;;;7382631;19;20357;-78
2022/08/02 09:53:37;;;;;;;3.00;2.33;;;28.70;99.90;;;;;;7378128;19;20385;-78
2022/08/02 09:56:04;;;;;;;2.20;2.00;;;29.00;99.90;;;;;;7381838;19;20325;-78
2022/08/02 09:58:29;;;;;;;3.20;2.40;;;29.40;99.90;;;;;;7383785;19;20717;-78
2022/08/02 10:00:57;;;;;;;3.10;2.50;;;29.20;99.90;;;;;;7381461;19;20333;-77
2022/08/02 10:03:23;;;;;;;3.20;2.10;;;29.40;99.90;;;;;;7384419;19;20386;-78
2022/08/02 10:05:53;;;;;;;3.95;2.03;;;29.50;99.90;;;;;;7383060;19;20337;-78
2022/08/02 10:08:19;;;;;;;2.33;2.17;;;29.80;99.90;;;;;;7383099;19;20691;-77
2022/08/02 10:10:45;;;;;;;2.30;2.10;;;29.90;99.90;;;;;;7380894;19;20356;-79
2022/08/02 10:13:10;;;;;;;1.80;1.70;;;30.20;99.90;;;;;;7381542;19;20368;-79
2022/08/02 10:15:36;;;;;;;2.22;2.00;;;30.70;99.20;;;;;;7382419;19;20348;-80
2022/08/02 10:18:06;;;;;;;2.20;2.03;;;30.90;97.60;;;;;;7381429;19;20368;-76
2022/08/02 10:20:35;;;;;;;2.13;1.92;;;30.80;98.20;;;;;;7380251;19;20328;-77
2022/08/02 10:23:00;;;;;;;2.60;2.00;;;30.60;95.80;;;;;;7377145;19;20353;-76
2022/08/02 10:25:26;;;;;;;2.23;2.07;;;30.70;97.00;;;;;;7378526;19;20351;-76
2022/08/02 10:27:51;;;;;;;1.97;1.87;;;30.20;95.50;;;;;;7378485;19;20393;-76
2022/08/02 10:30:17;;;;;;;2.50;1.90;;;30.50;97.80;;;;;;7379233;19;21118;-76
2022/08/02 10:32:44;;;;;;;1.98;1.88;;;30.80;95.70;;;;;;7377052;19;20351;-76
2022/08/02 10:35:13;;;;;;;1.70;1.60;;;30.60;94.90;;;;;;7376915;19;20360;-76
2022/08/02 10:37:38;;;;;;;1.75;1.65;;;30.60;94.50;;;;;;7377347;19;20364;-76
2022/08/02 10:40:05;;;;;;;1.70;1.60;;;30.50;94.20;;;;;;7379355;19;20340;-76
2022/08/02 10:42:59;;;;;;;2.30;1.77;;;30.50;95.70;;;;;;7375606;19;20357;-76
2022/08/02 10:45:24;;;;;;;2.40;1.67;;;30.90;95.10;;;;;;7378149;19;20336;-76
2022/08/02 10:48:14;;;;;;;2.10;1.73;;;31.40;92.20;;;;;;7379666;19;20814;-76
2022/08/02 10:50:46;;;;;;;2.97;1.70;;;31.80;93.10;;;;;;7383150;19;20373;-76
2022/08/02 10:53:22;;;;;;;1.90;1.65;;;31.40;90.40;;;;;;7383154;19;21121;-76
2022/08/02 10:55:48;;;;;;;1.42;1.33;;;31.60;90.80;;;;;;7379441;19;20352;-76
2022/08/02 10:58:23;;;;;;;1.70;1.60;;;31.80;90.50;;;;;;7380585;19;20340;-77
2022/08/02 11:00:49;;;;;;;1.50;1.40;;;31.20;85.90;;;;;;7382625;19;20339;-76
2022/08/02 11:03:44;;;;;;;2.13;1.38;;;31.20;90.20;;;;;;7381122;19;20353;-76
2022/08/02 11:06:11;;;;;;;1.88;1.67;;;31.80;85.60;;;;;;7378270;19;20388;-77
2022/08/02 11:08:36;;;;;;;1.50;1.40;;;32.00;85.60;;;;;;7381134;19;20364;-77
2022/08/02 11:11:08;;;;;;;1.35;1.35;;;32.30;85.10;;;;;;7381956;19;21397;-76
2022/08/02 11:14:03;;;;;;;1.40;1.30;;;32.80;82.30;;;;;;7376988;19;20368;-77
2022/08/02 11:16:53;;;;;;;1.50;1.17;;;32.90;80.80;;;;;;7382608;19;20339;-77
2022/08/02 11:19:19;;;;;;;2.10;1.60;;;33.10;81.80;;;;;;7384216;19;20367;-77
2022/08/02 11:22:04;;;;;;;1.20;1.20;;;32.50;74.90;;;;;;7389275;19;20364;-78
2022/08/02 11:24:37;;;;;;;2.10;1.75;;;32.60;82.10;;;;;;7385193;19;20411;-79
2022/08/02 11:27:17;;;;;;;2.00;1.50;;;33.00;79.00;;;;;;7381416;19;20335;-78
2022/08/02 11:29:44;;;;;;;2.03;1.30;;;32.70;74.10;;;;;;7380350;19;20356;-78
2022/08/02 11:32:21;;;;;;;1.58;1.40;;;33.10;78.40;;;;;;7376243;19;20345;-78
2022/08/02 11:34:50;;;;;;;1.33;1.25;;;33.30;74.60;;;;;;7380082;19;21042;-78
2022/08/02 11:37:35;;;;;;;1.50;1.40;;;33.40;74.20;;;;;;7374558;19;20523;-78
2022/08/02 11:40:05;;;;;;;1.65;1.52;;;32.80;73.70;;;;;;7377598;19;20844;-77
2022/08/02 11:42:35;;;;;;;1.40;1.30;;;33.30;76.10;;;;;;7376205;19;20353;-77
2022/08/02 11:45:01;;;;;;;1.20;1.20;;;33.40;74.50;;;;;;7378051;19;20372;-77
2022/08/02 11:47:26;;;;;;;1.47;1.37;;;33.40;73.20;;;;;;7376218;19;20461;-78
2022/08/02 11:49:52;;;;;;;1.57;1.40;;;33.60;70.90;;;;;;7378324;19;20373;-76
2022/08/02 11:52:17;;;;;;;1.75;1.40;;;34.10;72.50;;;;;;7377341;19;20353;-77
2022/08/02 11:54:43;;;;;;;1.33;1.30;;;33.70;69.60;;;;;;7380857;19;20920;-77
2022/08/02 11:57:15;;;;;;;1.70;1.30;;;32.60;65.40;;;;;;7378218;19;21089;-77
2022/08/02 11:59:41;;;;;;;1.50;1.40;;;32.70;69.60;;;;;;7382570;19;20353;-77
2022/08/02 12:02:07;;;;;;;1.20;1.20;;;33.30;69.80;;;;;;7383936;19;20352;-77
2022/08/02 12:04:33;;;;;;;1.50;1.40;;;32.60;66.50;;;;;;7384436;19;20371;-76
2022/08/02 12:06:59;;;;;;;3.78;1.30;;;33.20;72.30;;;;;;7386025;19;20360;-76
2022/08/02 12:09:26;;;;;;;1.20;1.20;;;33.40;71.00;;;;;;7387981;19;20352;-77
2022/08/02 12:11:52;;;;;;;1.33;1.30;;;34.30;67.60;;;;;;7386196;19;20923;-76
2022/08/02 12:14:17;;;;;;;1.20;1.20;;;33.90;62.70;;;;;;7386608;19;20356;-76
2022/08/02 12:19:27;;;;;;;1.30;1.30;;;34.50;67.30;;;;;;7384775;19;20328;-77
2022/08/02 12:22:12;;;;;;;1.10;1.10;;;34.90;66.20;;;;;;7382177;19;20348;-78
2022/08/02 12:24:38;;;;;;;2.47;1.40;;;35.10;62.00;;;;;;7387458;19;20445;-78
2022/08/02 12:27:04;;;;;;;1.30;1.20;;;35.60;66.60;;;;;;7386102;19;20703;-78
2022/08/02 12:29:34;;;;;;;1.30;1.30;;;36.20;64.30;;;;;;7386493;19;20377;-79
2022/08/02 12:32:00;;;;;;;1.65;1.30;;;36.70;64.50;;;;;;7383169;19;20356;-77
2022/08/02 12:34:27;;;;;;;1.40;1.30;;;36.10;62.70;;;;;;7384448;19;20358;-77
2022/08/02 12:37:06;;;;;;;2.10;1.23;;;35.60;57.80;;;;;;7384160;19;20359;-77
2022/08/02 12:39:42;;;;;;;1.80;1.33;;;34.30;59.70;;;;;;7384897;19;20382;-77
2022/08/02 12:42:10;;;;;;;1.30;1.20;;;34.20;59.80;;;;;;7382687;19;20348;-76
2022/08/02 12:44:37;;;;;;;1.55;1.38;;;34.80;61.80;;;;;;7385547;19;20336;-78
2022/08/02 12:47:08;;;;;;;1.40;1.30;;;35.40;61.60;;;;;;7380557;19;21042;-77
2022/08/02 12:49:34;;;;;;;1.33;1.23;;;35.40;59.70;;;;;;7382745;19;20328;-77
2022/08/02 12:51:59;;;;;;;2.10;1.30;;;35.60;58.80;;;;;;7379557;19;20411;-77
2022/08/02 12:54:31;;;;;;;1.40;1.30;;;35.60;60.00;;;;;;7383963;19;20345;-77